Time;durP1;ratioP1;P1;durP2;ratioP2;P2;SDS_P1;SDS_P2;PMS_P1;PMS_P2;Temp;Humidity;BMP_temperature;BMP_pressure;BME280_temperature;BME280_humidity;BME280_pressure;Samples;Min_cycle;Max_cycle;Signal;HPM_P1;HPM_P2
2022/01/24 05:00:58;;;;;;;12.43;8.82;;;1.90;99.90;;;;;;5785719;22;96996;-78
2022/01/24 05:03:23;;;;;;;12.98;8.77;;;1.90;99.90;;;;;;5037488;28;95415;-76
2022/01/24 05:05:50;;;;;;;10.65;8.45;;;1.90;99.90;;;;;;5038607;28;94752;-77
2022/01/24 05:08:16;;;;;;;12.80;9.15;;;1.90;99.90;;;;;;5020260;28;93775;-77
2022/01/24 05:10:57;;;;;;;12.70;9.13;;;1.90;99.90;;;;;;5033017;28;95139;-77
2022/01/24 05:21:50;;;;;;;14.27;8.93;;;2.00;99.90;;;;;;4997465;28;94702;-76
2022/01/24 05:24:16;;;;;;;14.75;9.23;;;2.00;99.90;;;;;;4978973;28;97673;-76
2022/01/24 05:26:41;;;;;;;13.52;8.82;;;2.00;99.90;;;;;;4980029;28;94653;-76
2022/01/24 05:29:07;;;;;;;12.70;9.23;;;2.00;99.90;;;;;;4997411;28;94540;-76
2022/01/24 05:31:32;;;;;;;13.32;9.02;;;2.00;99.90;;;;;;4979125;28;104590;-76
2022/01/24 05:33:58;;;;;;;14.55;9.65;;;2.00;99.90;;;;;;4997466;28;94968;-76
2022/01/24 05:36:23;;;;;;;13.43;9.82;;;2.10;99.90;;;;;;4997682;28;94363;-76
2022/01/24 05:38:49;;;;;;;15.40;9.55;;;2.10;99.90;;;;;;4997367;28;94332;-76
2022/01/24 05:41:15;;;;;;;11.85;8.70;;;2.10;99.90;;;;;;4996734;28;101222;-76
2022/01/24 05:43:41;;;;;;;13.00;9.15;;;2.10;99.90;;;;;;4978537;28;97477;-76
2022/01/24 05:46:06;;;;;;;13.60;9.48;;;2.10;99.90;;;;;;4997586;28;94421;-76
2022/01/24 05:48:32;;;;;;;16.67;9.13;;;2.10;99.90;;;;;;4997347;28;94326;-76
2022/01/24 05:50:57;;;;;;;13.20;9.85;;;2.20;99.90;;;;;;4978412;28;97750;-76
2022/01/24 05:53:23;;;;;;;15.85;9.90;;;2.20;99.90;;;;;;4996480;28;94419;-76
2022/01/24 05:55:48;;;;;;;14.43;9.88;;;2.20;99.90;;;;;;4979305;28;94511;-76
2022/01/24 05:58:14;;;;;;;13.80;9.77;;;2.20;99.90;;;;;;4997210;28;97696;-76
2022/01/24 06:00:39;;;;;;;13.57;8.98;;;2.20;99.90;;;;;;4978870;28;97724;-76
2022/01/24 06:03:05;;;;;;;14.95;10.35;;;2.20;99.90;;;;;;4996423;28;94482;-76
2022/01/24 06:05:30;;;;;;;16.40;10.90;;;2.20;99.90;;;;;;4995890;28;95388;-76
2022/01/24 06:07:56;;;;;;;15.02;10.38;;;2.20;99.90;;;;;;4996530;28;94900;-76
2022/01/24 06:10:22;;;;;;;12.77;9.85;;;2.20;99.90;;;;;;4977704;28;97805;-76
2022/01/24 06:12:47;;;;;;;14.55;9.63;;;2.20;99.90;;;;;;4996539;28;94502;-76
2022/01/24 06:15:13;;;;;;;14.95;10.05;;;2.20;99.90;;;;;;4978515;28;94589;-76
2022/01/24 06:17:39;;;;;;;16.20;9.65;;;2.20;99.90;;;;;;4996189;28;94536;-77
2022/01/24 06:20:06;;;;;;;14.18;9.50;;;2.20;99.90;;;;;;4978421;28;96768;-76
2022/01/24 06:22:32;;;;;;;13.75;9.80;;;2.20;99.90;;;;;;4996974;28;95749;-77
2022/01/24 06:24:58;;;;;;;15.02;9.45;;;2.20;99.90;;;;;;4996822;28;94407;-77
2022/01/24 06:27:23;;;;;;;15.07;8.85;;;2.30;99.90;;;;;;4976433;28;94947;-77
2022/01/24 06:29:49;;;;;;;13.50;9.38;;;2.20;99.90;;;;;;4995348;28;95467;-77
2022/01/24 06:32:14;;;;;;;13.68;9.35;;;2.30;99.90;;;;;;4977801;28;97554;-77
2022/01/24 06:34:40;;;;;;;11.45;8.63;;;2.30;99.90;;;;;;4996627;28;94502;-77
2022/01/24 06:37:05;;;;;;;11.95;9.00;;;2.30;99.90;;;;;;4996584;28;94462;-77
2022/01/24 06:39:31;;;;;;;14.10;9.70;;;2.30;99.90;;;;;;4996778;28;95637;-77
2022/01/24 06:42:22;;;;;;;14.32;9.27;;;2.30;99.90;;;;;;4978013;28;97537;-77
2022/01/24 06:44:45;;;;;;;14.25;9.30;;;2.30;99.90;;;;;;4996115;28;94360;-77
2022/01/24 06:47:10;;;;;;;14.02;9.23;;;2.30;99.90;;;;;;4978597;28;94667;-77
2022/01/24 06:49:36;;;;;;;13.65;9.38;;;2.40;99.90;;;;;;4996628;28;94316;-78
2022/01/24 06:52:03;;;;;;;13.80;9.00;;;2.40;99.90;;;;;;4996499;28;94912;-76
2022/01/24 06:54:28;;;;;;;13.63;9.60;;;2.40;99.90;;;;;;4977880;28;95588;-77
2022/01/24 06:56:54;;;;;;;14.55;9.57;;;2.40;99.90;;;;;;4996516;28;94483;-76
2022/01/24 06:59:19;;;;;;;16.92;10.48;;;2.40;99.90;;;;;;4995954;28;95631;-76
2022/01/24 07:01:45;;;;;;;13.05;9.02;;;2.50;99.90;;;;;;4994791;28;94983;-77
2022/01/24 07:04:11;;;;;;;13.02;9.35;;;2.50;99.90;;;;;;4979074;28;94596;-78
2022/01/24 07:06:36;;;;;;;15.80;9.95;;;2.50;99.90;;;;;;4978313;28;94551;-78
2022/01/24 07:09:03;;;;;;;13.38;9.35;;;2.50;99.90;;;;;;4978197;28;98196;-76
2022/01/24 07:11:29;;;;;;;16.15;10.35;;;2.50;99.90;;;;;;4996289;28;94923;-75
2022/01/24 07:13:54;;;;;;;15.43;10.07;;;2.50;99.90;;;;;;4995064;28;94338;-76
2022/01/24 07:16:20;;;;;;;15.70;9.68;;;2.60;99.90;;;;;;4995350;28;94478;-75
2022/01/24 07:18:58;;;;;;;16.40;9.38;;;2.60;99.90;;;;;;4995907;28;95957;-74
2022/01/24 07:21:24;;;;;;;13.43;9.05;;;2.60;99.90;;;;;;4995772;28;96121;-75
2022/01/24 07:23:50;;;;;;;13.52;9.18;;;2.60;99.90;;;;;;4977988;28;94521;-75
2022/01/24 07:26:16;;;;;;;17.33;10.05;;;2.70;99.90;;;;;;4995903;28;94511;-75
2022/01/24 07:28:41;;;;;;;13.50;8.95;;;2.70;99.90;;;;;;4995150;28;94922;-74
2022/01/24 07:31:07;;;;;;;13.45;8.82;;;2.70;99.90;;;;;;4995688;28;95444;-74
2022/01/24 07:33:32;;;;;;;16.80;9.52;;;2.80;99.90;;;;;;4978271;28;94572;-75
2022/01/24 07:35:58;;;;;;;15.23;10.05;;;2.80;99.90;;;;;;4996678;28;93638;-75
2022/01/24 07:38:24;;;;;;;19.02;11.18;;;2.80;99.90;;;;;;4995575;28;95349;-74
2022/01/24 07:40:51;;;;;;;19.05;11.52;;;2.90;99.90;;;;;;4995956;28;94415;-73
2022/01/24 07:43:17;;;;;;;19.40;11.15;;;2.90;99.90;;;;;;4994967;28;95538;-75
2022/01/24 07:45:45;;;;;;;16.17;9.63;;;3.00;99.90;;;;;;4977631;28;94337;-74
2022/01/24 07:48:12;;;;;;;12.88;9.32;;;3.00;99.90;;;;;;4995796;28;95275;-74
2022/01/24 07:50:40;;;;;;;13.27;7.45;;;3.10;99.90;;;;;;4996191;28;94399;-74
2022/01/24 07:53:07;;;;;;;14.70;8.75;;;3.10;99.90;;;;;;4996089;28;94316;-75
2022/01/24 07:55:33;;;;;;;12.90;7.85;;;3.20;99.90;;;;;;4996293;28;94525;-75
2022/01/24 07:57:59;;;;;;;8.48;5.85;;;3.20;99.90;;;;;;4977424;28;98088;-75
2022/01/24 08:00:25;;;;;;;10.10;6.90;;;3.30;99.90;;;;;;4996117;28;93731;-75
2022/01/24 08:02:50;;;;;;;10.52;6.78;;;3.40;99.90;;;;;;4995669;28;94540;-75
2022/01/24 08:05:16;;;;;;;7.90;5.50;;;3.40;99.90;;;;;;4995305;28;94468;-75
2022/01/24 08:07:42;;;;;;;10.23;6.22;;;3.50;99.90;;;;;;4976430;28;99200;-75
2022/01/24 08:10:09;;;;;;;8.65;5.78;;;3.50;99.90;;;;;;4995352;28;96228;-75
2022/01/24 08:12:35;;;;;;;7.45;5.93;;;3.60;99.90;;;;;;4995129;28;94346;-74
2022/01/24 08:15:02;;;;;;;11.10;6.97;;;3.60;99.90;;;;;;4994919;28;96410;-76
2022/01/24 08:17:29;;;;;;;10.15;5.82;;;3.60;99.90;;;;;;4976629;28;97881;-75
2022/01/24 08:19:55;;;;;;;9.75;6.32;;;3.70;99.90;;;;;;4995125;28;95078;-75
2022/01/24 08:22:20;;;;;;;7.72;5.57;;;3.70;99.90;;;;;;4996725;28;94508;-74
2022/01/24 08:24:46;;;;;;;11.75;5.65;;;3.70;99.90;;;;;;4996714;28;93794;-77
2022/01/24 08:27:15;;;;;;;9.80;5.53;;;3.80;99.90;;;;;;4979580;28;96533;-75
2022/01/24 08:29:43;;;;;;;9.10;5.90;;;3.80;99.90;;;;;;4997825;28;94430;-79
2022/01/24 08:32:09;;;;;;;10.77;5.95;;;3.80;99.90;;;;;;4981172;28;95701;-79
2022/01/24 08:34:35;;;;;;;10.77;5.75;;;3.90;99.90;;;;;;4979107;28;94590;-76
2022/01/24 08:37:01;;;;;;;7.65;4.85;;;3.90;99.90;;;;;;4994095;28;95068;-77
2022/01/24 08:39:29;;;;;;;10.45;5.32;;;3.90;99.90;;;;;;4976777;28;96921;-77
2022/01/24 08:46:47;;;;;;;6.15;4.80;;;3.90;99.90;;;;;;4994064;28;94347;-76
2022/01/24 08:49:13;;;;;;;10.52;5.20;;;4.00;99.90;;;;;;4994807;28;95155;-77
2022/01/24 08:51:38;;;;;;;9.18;5.80;;;4.10;99.90;;;;;;4996100;28;94802;-75
2022/01/24 08:54:05;;;;;;;9.70;5.97;;;4.10;99.90;;;;;;4994457;28;94908;-77
2022/01/24 08:56:31;;;;;;;11.98;5.53;;;4.20;99.90;;;;;;4993679;28;96205;-75
2022/01/24 08:58:57;;;;;;;9.32;6.57;;;4.20;99.90;;;;;;4995155;28;95940;-75
2022/01/24 09:01:23;;;;;;;8.73;6.20;;;4.20;99.90;;;;;;4995126;28;94514;-75
2022/01/24 09:03:48;;;;;;;12.23;8.05;;;4.30;99.90;;;;;;4996020;28;94498;-75
2022/01/24 09:06:17;;;;;;;10.88;6.72;;;4.30;99.90;;;;;;4994798;28;94414;-75
2022/01/24 09:08:44;;;;;;;8.07;5.97;;;4.40;99.90;;;;;;4969591;28;97505;-75
2022/01/24 09:11:09;;;;;;;6.97;4.78;;;4.50;99.90;;;;;;4993624;28;94618;-75
2022/01/24 09:13:35;;;;;;;6.65;5.47;;;4.60;99.90;;;;;;4993260;28;93776;-75
2022/01/24 09:16:01;;;;;;;7.30;5.40;;;4.60;99.90;;;;;;4975744;28;98367;-76
2022/01/24 09:18:29;;;;;;;6.75;5.63;;;4.70;99.90;;;;;;4994095;28;94576;-75
2022/01/24 09:20:56;;;;;;;9.07;5.97;;;4.80;99.90;;;;;;4994528;28;95504;-77
2022/01/24 09:23:22;;;;;;;7.50;6.00;;;5.00;99.90;;;;;;4976629;28;94599;-75
2022/01/24 09:25:49;;;;;;;6.97;5.82;;;5.10;99.90;;;;;;4997049;28;94461;-75
2022/01/24 09:28:15;;;;;;;9.07;5.65;;;5.20;99.90;;;;;;4997641;28;94478;-75
2022/01/24 09:30:41;;;;;;;7.25;6.10;;;5.30;99.90;;;;;;4979553;28;94553;-75
2022/01/24 09:33:11;;;;;;;7.57;5.10;;;5.30;99.90;;;;;;4997172;28;94483;-75
2022/01/24 09:35:38;;;;;;;8.93;5.30;;;5.30;99.90;;;;;;4979615;28;97997;-75
2022/01/24 09:38:05;;;;;;;6.47;4.90;;;5.30;99.90;;;;;;4998241;28;95702;-75
2022/01/24 09:40:31;;;;;;;6.72;4.50;;;5.40;99.90;;;;;;4991604;28;94528;-75
2022/01/24 09:42:58;;;;;;;5.47;4.70;;;5.50;99.90;;;;;;4977773;28;94620;-75
2022/01/24 09:45:24;;;;;;;8.48;4.88;;;5.50;99.90;;;;;;4975260;28;98257;-76
2022/01/24 09:47:50;;;;;;;8.02;5.15;;;5.60;99.90;;;;;;4977613;28;95262;-75
2022/01/24 09:50:18;;;;;;;6.68;5.05;;;5.70;99.90;;;;;;4977823;28;94368;-75
2022/01/24 09:52:45;;;;;;;7.40;5.25;;;5.40;99.90;;;;;;4977392;28;94480;-75
2022/01/24 09:55:11;;;;;;;8.68;5.25;;;5.30;99.90;;;;;;4977560;28;95195;-75
2022/01/24 09:57:37;;;;;;;7.43;4.63;;;5.00;99.90;;;;;;4988121;28;94759;-75
2022/01/24 10:00:06;;;;;;;6.63;4.78;;;4.90;99.90;;;;;;4998146;28;94564;-75
2022/01/24 10:02:31;;;;;;;7.50;4.90;;;4.80;99.90;;;;;;4991871;28;93741;-75
2022/01/24 10:05:24;;;;;;;5.63;4.40;;;4.80;99.90;;;;;;4996699;28;95231;-75
2022/01/24 10:08:03;;;;;;;5.45;4.00;;;4.90;99.90;;;;;;4979957;28;95213;-75
2022/01/24 10:10:50;;;;;;;8.95;4.18;;;4.90;99.90;;;;;;4990725;28;95449;-73
2022/01/24 10:16:43;;;;;;;5.45;4.43;;;5.00;99.90;;;;;;5017826;28;94378;-75
2022/01/24 10:19:19;;;;;;;4.97;3.40;;;5.20;99.90;;;;;;4946339;28;94520;-76
2022/01/24 10:21:46;;;;;;;8.13;4.07;;;5.20;99.90;;;;;;4977606;28;94637;-75
2022/01/24 10:24:35;;;;;;;7.82;3.20;;;5.30;99.90;;;;;;4977023;28;94708;-76
2022/01/24 10:27:20;;;;;;;8.25;3.47;;;5.60;99.90;;;;;;4961147;28;95722;-76
2022/01/24 10:29:47;;;;;;;5.28;3.03;;;5.80;99.90;;;;;;4958963;28;98059;-76
2022/01/24 10:32:42;;;;;;;7.07;3.28;;;5.90;99.90;;;;;;4984776;28;94520;-76
2022/01/24 10:35:34;;;;;;;4.50;3.35;;;6.00;99.90;;;;;;4995866;28;94687;-76
2022/01/24 10:38:39;;;;;;;4.57;3.08;;;6.30;99.90;;;;;;4996314;28;95484;-76
2022/01/24 10:43:39;;;;;;;5.25;3.38;;;6.50;99.90;;;;;;4997273;28;94555;-76
2022/01/24 10:46:06;;;;;;;4.70;3.10;;;6.60;99.90;;;;;;4996427;28;94584;-76
2022/01/24 10:48:34;;;;;;;5.70;3.83;;;6.80;99.90;;;;;;4996492;28;94558;-76
2022/01/24 10:51:21;;;;;;;6.07;3.10;;;6.90;99.90;;;;;;4996550;28;94752;-76
2022/01/24 10:53:52;;;;;;;4.28;3.33;;;6.70;99.90;;;;;;4996496;28;94355;-76
2022/01/24 10:56:28;;;;;;;5.53;3.30;;;6.80;99.90;;;;;;4996908;28;93794;-76
2022/01/24 10:59:01;;;;;;;6.35;3.20;;;6.90;99.90;;;;;;4978403;28;98146;-76
2022/01/24 11:01:28;;;;;;;6.95;3.40;;;6.90;99.90;;;;;;4996550;28;94848;-76
2022/01/24 11:04:03;;;;;;;4.63;3.03;;;7.10;99.90;;;;;;4995616;28;95514;-76
2022/01/24 11:06:41;;;;;;;6.97;2.90;;;7.20;99.90;;;;;;4995682;28;94539;-76
2022/01/24 11:09:26;;;;;;;4.78;2.85;;;7.40;99.90;;;;;;4995764;28;94535;-76
2022/01/24 11:11:56;;;;;;;5.00;2.70;;;7.60;99.90;;;;;;4995789;28;94471;-76
2022/01/24 11:14:25;;;;;;;6.25;2.90;;;7.30;99.90;;;;;;5018592;22;94656;-76
2022/01/24 11:16:52;;;;;;;5.70;3.20;;;7.30;99.90;;;;;;4995995;28;94941;-76
2022/01/24 11:19:39;;;;;;;5.15;3.10;;;7.40;99.90;;;;;;4976798;28;97048;-78
2022/01/24 11:22:06;;;;;;;7.63;3.63;;;7.40;99.90;;;;;;4977272;28;98006;-76
2022/01/24 11:27:05;;;;;;;5.40;3.10;;;7.40;99.90;;;;;;4973546;28;94985;-77
2022/01/24 11:29:31;;;;;;;5.68;3.10;;;7.40;99.90;;;;;;4976603;28;95469;-77
2022/01/24 11:32:12;;;;;;;4.50;2.95;;;7.20;99.90;;;;;;4977359;28;95554;-77
2022/01/24 11:34:39;;;;;;;5.10;3.10;;;7.30;99.90;;;;;;4976301;28;94453;-77
2022/01/24 11:37:07;;;;;;;5.85;3.50;;;7.20;99.90;;;;;;4957707;28;94826;-77
2022/01/24 11:39:33;;;;;;;6.15;3.38;;;7.20;99.90;;;;;;4975212;28;95149;-76
2022/01/24 11:41:59;;;;;;;5.05;3.17;;;7.20;99.90;;;;;;4957740;28;97484;-77
2022/01/24 11:44:43;;;;;;;7.40;2.97;;;7.20;99.90;;;;;;4976608;28;94669;-77
2022/01/24 11:47:27;;;;;;;4.72;2.90;;;7.10;99.90;;;;;;4976459;28;94065;-77
2022/01/24 11:49:54;;;;;;;5.05;3.33;;;7.10;99.90;;;;;;4958772;28;98084;-77
2022/01/24 11:52:28;;;;;;;4.20;3.08;;;7.10;99.90;;;;;;4958377;28;97624;-77
2022/01/24 11:55:12;;;;;;;5.70;2.90;;;7.00;99.90;;;;;;4975399;28;95526;-77
2022/01/24 11:57:39;;;;;;;5.18;2.97;;;7.10;99.90;;;;;;4958819;28;94511;-76
2022/01/24 12:00:05;;;;;;;6.70;3.13;;;7.50;99.90;;;;;;4976296;28;94477;-77
2022/01/24 12:02:38;;;;;;;6.93;3.00;;;7.40;99.90;;;;;;4974774;28;94535;-76
2022/01/24 12:05:26;;;;;;;5.68;3.00;;;7.10;99.90;;;;;;4957709;28;94495;-77
2022/01/24 12:07:53;;;;;;;6.15;3.22;;;7.20;99.90;;;;;;4975254;28;94403;-76
2022/01/24 12:10:38;;;;;;;5.40;3.33;;;7.40;99.90;;;;;;4973851;28;95305;-76
2022/01/24 12:13:09;;;;;;;6.95;3.05;;;7.30;99.90;;;;;;4970948;28;95284;-76
2022/01/24 12:15:38;;;;;;;4.30;2.80;;;7.30;99.90;;;;;;4955942;28;94622;-77
2022/01/24 12:18:07;;;;;;;3.83;2.75;;;7.10;99.90;;;;;;4956115;28;94919;-75
2022/01/24 12:20:36;;;;;;;4.63;2.88;;;7.00;99.90;;;;;;4974873;28;96436;-74
2022/01/24 12:23:16;;;;;;;5.15;3.08;;;6.90;99.90;;;;;;4957619;28;98084;-78
2022/01/24 12:26:02;;;;;;;5.20;3.38;;;6.90;99.90;;;;;;4957712;28;94572;-73
2022/01/24 12:28:53;;;;;;;4.40;2.95;;;6.90;99.90;;;;;;4976296;28;94430;-75
2022/01/24 12:31:39;;;;;;;7.85;3.13;;;6.90;99.90;;;;;;4975144;28;95280;-77
2022/01/24 12:34:09;;;;;;;9.50;2.90;;;6.80;99.90;;;;;;4975660;28;95459;-77
2022/01/24 12:36:37;;;;;;;3.25;2.83;;;6.90;99.90;;;;;;4958148;28;94481;-76
2022/01/24 12:39:51;;;;;;;5.25;3.08;;;6.80;99.90;;;;;;4975732;28;94022;-76
2022/01/24 12:42:34;;;;;;;8.27;3.40;;;6.70;99.90;;;;;;4961756;28;94551;-77
2022/01/24 12:48:05;;;;;;;8.55;3.50;;;6.60;99.90;;;;;;4959453;28;95969;-76
2022/01/24 12:50:31;;;;;;;5.10;3.10;;;6.80;99.90;;;;;;4972851;28;96612;-74
2022/01/24 12:52:56;;;;;;;8.50;3.38;;;6.80;99.90;;;;;;4967954;28;95297;-75
2022/01/24 12:55:22;;;;;;;6.15;3.17;;;6.90;99.90;;;;;;4973543;28;95130;-76
2022/01/24 12:57:47;;;;;;;5.35;2.67;;;6.90;99.90;;;;;;4973837;28;94863;-76
2022/01/24 13:00:18;;;;;;;8.10;3.55;;;6.90;99.90;;;;;;4976951;28;94370;-76
2022/01/24 13:02:44;;;;;;;8.77;4.22;;;6.80;99.90;;;;;;4976986;28;94515;-75
2022/01/24 13:05:20;;;;;;;5.95;3.70;;;6.90;99.90;;;;;;4959606;28;98035;-75
2022/01/24 13:07:58;;;;;;;7.10;3.30;;;6.90;99.90;;;;;;4977365;28;94576;-76
2022/01/24 13:10:27;;;;;;;5.78;3.00;;;6.90;99.90;;;;;;4977597;28;94445;-75
2022/01/24 13:13:00;;;;;;;8.05;3.25;;;7.00;99.90;;;;;;4976722;28;96002;-79
2022/01/24 13:21:09;;;;;;;5.15;2.97;;;6.80;99.90;;;;;;4977347;28;94597;-76
2022/01/24 13:23:40;;;;;;;6.78;3.35;;;6.80;99.90;;;;;;4976142;28;94611;-75
2022/01/24 13:26:08;;;;;;;8.02;3.83;;;6.70;99.90;;;;;;4970979;28;95138;-76
2022/01/24 13:28:34;;;;;;;4.90;2.95;;;6.70;99.90;;;;;;4977926;28;94487;-74
2022/01/24 13:31:02;;;;;;;6.78;3.60;;;6.70;99.90;;;;;;4978277;28;94109;-75
2022/01/24 13:33:30;;;;;;;7.03;3.47;;;6.70;99.90;;;;;;4977367;28;94596;-74
2022/01/24 13:36:03;;;;;;;6.05;3.00;;;6.60;99.90;;;;;;4977039;28;94674;-77
2022/01/24 13:38:33;;;;;;;4.90;3.05;;;6.50;99.90;;;;;;4959955;28;95455;-76
2022/01/24 13:41:09;;;;;;;8.02;3.30;;;6.40;99.90;;;;;;4977481;28;94503;-75
2022/01/24 13:43:34;;;;;;;4.47;3.00;;;6.40;99.90;;;;;;4976742;28;95497;-76
2022/01/24 13:46:01;;;;;;;4.80;3.13;;;6.40;99.90;;;;;;4976644;28;94511;-77
2022/01/24 13:48:27;;;;;;;5.10;2.95;;;6.30;99.90;;;;;;4978332;28;94895;-75
2022/01/24 13:50:58;;;;;;;5.25;3.13;;;6.20;99.90;;;;;;4959966;28;94478;-76
2022/01/24 13:53:30;;;;;;;4.30;3.00;;;6.20;99.90;;;;;;4976660;28;96242;-76
2022/01/24 13:55:56;;;;;;;4.10;3.15;;;6.30;99.90;;;;;;4977278;28;94786;-76
2022/01/24 13:58:25;;;;;;;3.70;2.65;;;6.30;99.90;;;;;;4977558;28;94499;-77
2022/01/24 14:00:59;;;;;;;4.50;2.95;;;6.30;99.90;;;;;;4977210;28;94437;-77
2022/01/24 14:03:25;;;;;;;7.90;3.50;;;6.30;99.90;;;;;;4978945;28;96093;-77
2022/01/24 14:06:14;;;;;;;5.05;2.78;;;6.20;99.90;;;;;;4959913;28;97790;-76
2022/01/24 14:08:41;;;;;;;7.43;3.45;;;6.20;99.90;;;;;;4967201;28;94412;-72
2022/01/24 14:11:15;;;;;;;7.65;3.70;;;6.20;99.90;;;;;;4974314;28;93745;-71
2022/01/24 14:14:06;;;;;;;8.63;3.38;;;6.20;99.90;;;;;;4987366;28;94964;-76
2022/01/24 14:19:05;;;;;;;5.72;3.45;;;6.10;99.90;;;;;;4982837;28;94447;-80
2022/01/24 14:21:31;;;;;;;5.63;3.30;;;6.10;99.90;;;;;;4966459;28;93787;-74
2022/01/24 14:24:00;;;;;;;5.63;3.30;;;6.10;99.90;;;;;;4979367;28;94595;-75
2022/01/24 14:26:27;;;;;;;5.07;3.13;;;6.10;99.90;;;;;;4981630;28;94941;-80
2022/01/24 14:29:14;;;;;;;6.72;3.20;;;6.10;99.90;;;;;;4962406;28;95510;-74
2022/01/24 14:31:44;;;;;;;6.82;3.53;;;6.10;99.90;;;;;;4959057;28;94398;-75
2022/01/24 14:34:13;;;;;;;6.18;3.10;;;6.10;99.90;;;;;;4958441;28;94536;-75
2022/01/24 14:36:40;;;;;;;4.53;3.22;;;6.00;99.90;;;;;;4959629;28;94892;-78
2022/01/24 14:39:08;;;;;;;5.45;3.00;;;6.00;99.90;;;;;;4959939;28;94322;-75
2022/01/24 14:41:46;;;;;;;8.75;3.35;;;6.00;99.90;;;;;;4959473;28;94604;-78
2022/01/24 14:46:58;;;;;;;8.18;3.80;;;6.00;99.90;;;;;;4959437;28;94453;-78
2022/01/24 14:49:29;;;;;;;7.28;3.58;;;6.00;99.90;;;;;;4958811;28;94502;-77
2022/01/24 14:52:00;;;;;;;7.88;4.00;;;6.00;99.90;;;;;;4958746;28;94415;-74
2022/01/24 14:54:29;;;;;;;7.63;4.25;;;6.00;99.90;;;;;;4956265;28;96543;-75
2022/01/24 14:56:58;;;;;;;5.28;4.03;;;5.90;99.90;;;;;;4957922;28;95646;-75
2022/01/24 14:59:25;;;;;;;6.50;3.97;;;5.90;99.90;;;;;;4958434;28;94446;-75
2022/01/24 15:01:51;;;;;;;6.22;4.00;;;5.80;99.90;;;;;;4956413;28;94838;-75
2022/01/24 15:04:17;;;;;;;6.82;4.70;;;5.70;99.90;;;;;;4957689;28;94505;-80
2022/01/24 15:06:44;;;;;;;7.95;4.25;;;5.70;99.90;;;;;;4959234;28;94398;-82
2022/01/24 15:09:16;;;;;;;14.55;8.38;;;5.70;99.90;;;;;;4962444;28;94597;-77
2022/01/24 15:11:43;;;;;;;33.35;15.68;;;5.70;99.90;;;;;;4959330;28;93703;-76
2022/01/24 15:27:42;;;;;;;40.80;22.83;;;5.00;99.90;;;;;;4973077;28;94485;-72
2022/01/24 15:30:10;;;;;;;26.02;13.68;;;4.90;99.90;;;;;;4979035;28;94546;-76
2022/01/24 15:32:36;;;;;;;10.90;5.28;;;4.80;99.90;;;;;;4974811;28;94517;-75
2022/01/24 15:35:02;;;;;;;8.60;4.22;;;4.80;99.90;;;;;;4956084;28;96584;-75
2022/01/24 15:37:27;;;;;;;8.18;4.53;;;4.60;99.90;;;;;;4975868;28;95271;-75
2022/01/24 15:39:54;;;;;;;7.03;4.45;;;4.50;99.90;;;;;;4975242;28;94491;-75
2022/01/24 15:42:34;;;;;;;10.38;4.90;;;4.40;99.90;;;;;;4975197;28;94663;-77
2022/01/24 15:45:27;;;;;;;10.93;4.45;;;4.30;99.90;;;;;;4975174;28;96214;-76
2022/01/24 15:47:48;;;;;;;9.48;4.72;;;4.20;99.90;;;;;;4974584;28;95548;-73
2022/01/24 15:50:18;;;;;;;11.07;4.90;;;4.10;99.90;;;;;;4975456;28;94470;-73
2022/01/24 15:52:44;;;;;;;8.23;4.57;;;3.90;99.90;;;;;;4975594;28;94514;-73
2022/01/24 15:55:16;;;;;;;8.63;3.90;;;3.70;99.90;;;;;;4975365;28;95198;-75
2022/01/24 15:57:43;;;;;;;8.65;4.80;;;3.50;99.90;;;;;;4975992;28;95240;-76
2022/01/24 16:00:18;;;;;;;7.97;4.28;;;3.50;99.90;;;;;;4975942;28;94417;-73
2022/01/24 16:02:46;;;;;;;9.65;4.50;;;3.30;99.90;;;;;;4975980;28;94137;-74
2022/01/24 16:05:14;;;;;;;9.48;4.75;;;3.20;99.90;;;;;;4975168;28;94441;-75
2022/01/24 16:07:40;;;;;;;13.57;4.90;;;3.00;99.90;;;;;;4975458;28;94487;-75
2022/01/24 16:10:12;;;;;;;7.40;4.85;;;2.90;99.90;;;;;;4974707;28;95324;-75
2022/01/24 16:12:39;;;;;;;9.30;4.82;;;2.90;99.90;;;;;;4975449;28;94497;-74
2022/01/24 16:15:06;;;;;;;10.00;5.05;;;2.70;99.90;;;;;;4974742;28;95072;-75
2022/01/24 16:17:32;;;;;;;7.30;5.15;;;2.60;99.90;;;;;;4974385;28;94519;-75
2022/01/24 16:20:00;;;;;;;8.35;4.93;;;2.40;99.90;;;;;;4957534;28;94831;-75
2022/01/24 16:25:22;;;;;;;10.07;5.30;;;2.20;99.90;;;;;;4974538;28;94687;-75
2022/01/24 16:27:47;;;;;;;9.68;5.13;;;2.10;99.90;;;;;;4975107;28;94022;-76
2022/01/24 16:30:13;;;;;;;9.85;5.40;;;1.90;99.90;;;;;;4975752;28;94598;-76
2022/01/24 16:32:39;;;;;;;9.40;5.53;;;1.90;99.90;;;;;;4975248;28;94531;-74
2022/01/24 16:35:05;;;;;;;13.00;5.93;;;1.80;99.90;;;;;;4976490;28;97390;-74
2022/01/24 16:37:35;;;;;;;11.02;5.68;;;1.70;99.90;;;;;;4977842;28;94681;-75
2022/01/24 16:40:09;;;;;;;10.57;5.38;;;1.70;99.90;;;;;;4977850;28;94373;-76
2022/01/24 16:42:40;;;;;;;9.40;6.20;;;1.60;99.90;;;;;;4978812;28;94368;-77
2022/01/24 16:47:03;;;;;;;8.82;5.55;;;1.50;99.90;;;;;;4978170;28;95091;-76
2022/01/24 16:48:12;;;;;;;11.10;5.72;;;1.50;99.90;;;;;;4977706;28;94562;-74
2022/01/24 16:50:40;;;;;;;12.02;6.35;;;1.40;99.90;;;;;;4977890;28;94391;-79
2022/01/24 16:53:11;;;;;;;11.25;5.63;;;1.30;99.90;;;;;;4978167;28;93786;-78
2022/01/24 16:55:37;;;;;;;9.90;5.40;;;1.20;99.90;;;;;;4977896;28;95289;-78
2022/01/24 16:58:02;;;;;;;12.00;5.80;;;1.10;99.90;;;;;;4977732;28;95128;-75
2022/01/24 17:00:28;;;;;;;9.38;5.55;;;1.00;99.90;;;;;;4977419;28;95310;-77
2022/01/24 17:02:54;;;;;;;11.88;5.82;;;1.00;99.90;;;;;;4978504;28;94401;-76
2022/01/24 17:05:19;;;;;;;12.27;5.82;;;0.90;99.90;;;;;;4978571;28;97825;-75
2022/01/24 17:07:45;;;;;;;13.20;5.72;;;0.80;99.90;;;;;;4975459;28;94471;-77
2022/01/24 17:10:10;;;;;;;13.60;7.07;;;0.70;99.90;;;;;;4972578;28;94617;-81
2022/01/24 17:12:36;;;;;;;14.85;8.73;;;0.70;99.90;;;;;;4960807;28;94771;-77
2022/01/24 17:15:05;;;;;;;19.70;9.93;;;0.70;99.90;;;;;;4994842;22;94486;-77
2022/01/24 17:17:32;;;;;;;20.55;12.57;;;0.70;99.90;;;;;;4993927;28;94750;-78
2022/01/24 17:19:57;;;;;;;24.40;12.63;;;0.70;99.90;;;;;;4981635;28;94544;-76
2022/01/24 17:22:23;;;;;;;24.67;12.98;;;0.70;99.90;;;;;;4981693;28;94663;-79
2022/01/24 17:24:48;;;;;;;31.83;17.55;;;0.60;99.90;;;;;;4972333;28;99079;-79
2022/01/24 17:27:16;;;;;;;36.58;18.85;;;0.60;99.90;;;;;;4979163;28;97012;-81
2022/01/24 17:29:42;;;;;;;33.78;17.20;;;0.50;99.90;;;;;;4964795;28;95022;-81
2022/01/24 17:32:08;;;;;;;36.35;18.60;;;0.40;99.90;;;;;;4960059;28;94543;-77
2022/01/24 17:34:33;;;;;;;33.28;17.42;;;0.40;99.90;;;;;;4989916;28;95222;-77
2022/01/24 17:36:59;;;;;;;33.53;17.63;;;0.30;99.90;;;;;;4964660;28;97882;-81
2022/01/24 17:39:25;;;;;;;28.75;16.80;;;0.30;99.90;;;;;;4990703;28;94480;-81
2022/01/24 17:41:50;;;;;;;30.50;18.33;;;0.20;99.90;;;;;;4973344;28;93844;-81
2022/01/24 17:44:16;;;;;;;34.00;20.20;;;0.20;99.90;;;;;;4950871;28;97183;-79
2022/01/24 17:46:43;;;;;;;38.05;23.95;;;0.20;99.90;;;;;;4950934;28;97584;-77
2022/01/24 17:49:08;;;;;;;37.30;22.50;;;0.20;99.90;;;;;;4975638;28;95507;-80
2022/01/24 17:51:34;;;;;;;33.47;20.33;;;0.10;99.90;;;;;;4977654;28;94928;-76
2022/01/24 17:53:59;;;;;;;33.80;18.63;;;0.10;99.90;;;;;;4970061;28;95723;-76
2022/01/24 17:56:25;;;;;;;23.90;15.23;;;0.10;99.90;;;;;;4971636;28;94883;-79
2022/01/24 17:58:51;;;;;;;24.75;14.93;;;0.00;99.90;;;;;;4965293;28;94498;-81
2022/01/24 18:01:17;;;;;;;21.08;11.93;;;-0.10;99.90;;;;;;4979608;28;94587;-78
2022/01/24 18:03:43;;;;;;;19.63;11.50;;;-0.10;99.90;;;;;;4973400;28;94476;-78
2022/01/24 18:06:11;;;;;;;22.38;11.40;;;-0.20;99.90;;;;;;4949921;28;96961;-78
2022/01/24 18:08:40;;;;;;;15.93;10.30;;;-0.20;99.90;;;;;;4972065;28;95057;-79
2022/01/24 18:11:10;;;;;;;18.85;9.65;;;-0.20;99.90;;;;;;4950709;28;94689;-79
2022/01/24 18:13:38;;;;;;;19.00;11.20;;;-0.30;99.90;;;;;;4961029;28;97631;-80
2022/01/24 18:16:05;;;;;;;22.13;10.80;;;-0.30;99.90;;;;;;4943340;28;98592;-79
2022/01/24 18:18:31;;;;;;;20.65;12.20;;;-0.30;99.90;;;;;;4943708;28;94890;-80
2022/01/24 18:20:57;;;;;;;23.63;13.70;;;-0.40;99.90;;;;;;4962830;28;94389;-80
2022/01/24 18:23:23;;;;;;;28.65;14.45;;;-0.40;99.90;;;;;;4961857;28;95388;-81
2022/01/24 18:25:49;;;;;;;26.92;15.45;;;-0.50;99.90;;;;;;4962887;28;94977;-80
2022/01/24 18:28:14;;;;;;;28.55;17.25;;;-0.50;99.90;;;;;;4961362;28;94357;-79
2022/01/24 18:30:40;;;;;;;24.80;14.93;;;-0.50;99.90;;;;;;4978439;28;93733;-79
2022/01/24 18:33:05;;;;;;;30.00;15.25;;;-0.50;99.90;;;;;;4959966;28;97755;-81
2022/01/24 18:35:31;;;;;;;24.17;14.75;;;-0.60;99.90;;;;;;4977970;28;94525;-79
2022/01/24 18:37:57;;;;;;;28.10;15.52;;;-0.60;99.90;;;;;;4959101;28;95270;-80
2022/01/24 18:40:23;;;;;;;23.40;15.07;;;-0.60;99.90;;;;;;4959580;28;94722;-80
2022/01/24 18:42:53;;;;;;;25.95;15.88;;;-0.60;99.90;;;;;;4976221;28;95037;-81
2022/01/24 18:45:19;;;;;;;26.65;16.27;;;-0.70;99.90;;;;;;4959365;28;96734;-80
2022/01/24 18:47:45;;;;;;;30.52;18.55;;;-0.70;99.90;;;;;;4970506;28;94389;-81
2022/01/24 18:50:17;;;;;;;36.53;19.15;;;-0.70;99.90;;;;;;4970651;28;94391;-82
2022/01/24 18:52:43;;;;;;;28.60;18.55;;;-0.80;99.90;;;;;;4968367;28;96955;-79